sensor_id;sensor_type;location;lat;lon;timestamp;temperature;humidity
8537;DHT22;4306;50.210;10.628;2023-02-11T00:00:38;-1.70;99.90
8537;DHT22;4306;50.210;10.628;2023-02-11T00:03:05;-1.70;99.90
8537;DHT22;4306;50.210;10.628;2023-02-11T00:05:32;-1.60;99.90
8537;DHT22;4306;50.210;10.628;2023-02-11T00:07:59;-1.50;99.90
8537;DHT22;4306;50.210;10.628;2023-02-11T00:10:27;-1.60;99.90
8537;DHT22;4306;50.210;10.628;2023-02-11T00:12:54;-1.50;99.90
8537;DHT22;4306;50.210;10.628;2023-02-11T00:15:21;-1.50;99.90
8537;DHT22;4306;50.210;10.628;2023-02-11T00:17:47;-1.40;99.90
8537;DHT22;4306;50.210;10.628;2023-02-11T00:20:14;-1.40;99.90
8537;DHT22;4306;50.210;10.628;2023-02-11T00:22:41;-1.40;99.90
8537;DHT22;4306;50.210;10.628;2023-02-11T00:25:08;-1.20;99.90
8537;DHT22;4306;50.210;10.628;2023-02-11T00:27:37;-1.20;99.90
8537;DHT22;4306;50.210;10.628;2023-02-11T00:30:04;-1.10;99.90
8537;DHT22;4306;50.210;10.628;2023-02-11T00:32:31;-1.10;99.90
8537;DHT22;4306;50.210;10.628;2023-02-11T00:34:58;-1.10;99.90
8537;DHT22;4306;50.210;10.628;2023-02-11T00:37:25;-1.00;99.90
8537;DHT22;4306;50.210;10.628;2023-02-11T00:39:52;-1.00;99.90
8537;DHT22;4306;50.210;10.628;2023-02-11T00:42:19;-1.00;99.90
8537;DHT22;4306;50.210;10.628;2023-02-11T00:44:47;-1.00;99.90
8537;DHT22;4306;50.210;10.628;2023-02-11T00:47:14;-0.90;99.90
8537;DHT22;4306;50.210;10.628;2023-02-11T00:49:41;-0.80;99.90
8537;DHT22;4306;50.210;10.628;2023-02-11T00:52:07;-0.80;99.90
8537;DHT22;4306;50.210;10.628;2023-02-11T00:54:34;-0.80;99.90
8537;DHT22;4306;50.210;10.628;2023-02-11T00:57:01;-0.80;99.90
8537;DHT22;4306;50.210;10.628;2023-02-11T00:59:28;-0.80;99.90
8537;DHT22;4306;50.210;10.628;2023-02-11T01:01:56;-0.70;99.90
8537;DHT22;4306;50.210;10.628;2023-02-11T01:04:23;-0.70;99.90
8537;DHT22;4306;50.210;10.628;2023-02-11T01:06:50;-0.60;99.90
8537;DHT22;4306;50.210;10.628;2023-02-11T01:09:17;-0.70;99.90
8537;DHT22;4306;50.210;10.628;2023-02-11T01:11:45;-0.60;99.90
8537;DHT22;4306;50.210;10.628;2023-02-11T01:14:12;-0.60;99.90
8537;DHT22;4306;50.210;10.628;2023-02-11T01:16:39;-0.60;99.90
8537;DHT22;4306;50.210;10.628;2023-02-11T01:19:07;-0.60;99.90
8537;DHT22;4306;50.210;10.628;2023-02-11T01:21:34;-0.60;99.90
8537;DHT22;4306;50.210;10.628;2023-02-11T01:24:01;-0.60;99.90
8537;DHT22;4306;50.210;10.628;2023-02-11T01:26:28;-0.60;99.90
8537;DHT22;4306;50.210;10.628;2023-02-11T01:28:54;-0.60;99.90
8537;DHT22;4306;50.210;10.628;2023-02-11T01:31:21;-0.60;99.90
8537;DHT22;4306;50.210;10.628;2023-02-11T01:33:48;-0.40;99.90
8537;DHT22;4306;50.210;10.628;2023-02-11T01:36:16;-0.60;99.90
8537;DHT22;4306;50.210;10.628;2023-02-11T01:38:43;-0.50;99.90
8537;DHT22;4306;50.210;10.628;2023-02-11T01:41:12;-0.50;99.90
8537;DHT22;4306;50.210;10.628;2023-02-11T01:43:41;-0.50;99.90
8537;DHT22;4306;50.210;10.628;2023-02-11T01:46:19;-0.40;99.90
8537;DHT22;4306;50.210;10.628;2023-02-11T01:48:51;-0.50;99.90
8537;DHT22;4306;50.210;10.628;2023-02-11T01:51:23;-0.40;99.90
8537;DHT22;4306;50.210;10.628;2023-02-11T01:53:51;-0.30;99.90
8537;DHT22;4306;50.210;10.628;2023-02-11T01:56:41;-0.30;99.90
8537;DHT22;4306;50.210;10.628;2023-02-11T01:59:29;-0.30;99.90
8537;DHT22;4306;50.210;10.628;2023-02-11T02:01:59;-0.30;99.90
8537;DHT22;4306;50.210;10.628;2023-02-11T02:04:33;-0.20;99.90
8537;DHT22;4306;50.210;10.628;2023-02-11T02:07:07;-0.20;99.90
8537;DHT22;4306;50.210;10.628;2023-02-11T02:09:39;-0.10;99.90
8537;DHT22;4306;50.210;10.628;2023-02-11T02:12:07;-0.10;99.90
8537;DHT22;4306;50.210;10.628;2023-02-11T02:14:37;0.00;99.90
8537;DHT22;4306;50.210;10.628;2023-02-11T02:17:04;0.00;99.90
8537;DHT22;4306;50.210;10.628;2023-02-11T02:23:11;0.00;99.90
8537;DHT22;4306;50.210;10.628;2023-02-11T02:32:12;0.10;99.90
8537;DHT22;4306;50.210;10.628;2023-02-11T02:34:45;0.10;99.90
8537;DHT22;4306;50.210;10.628;2023-02-11T02:37:18;0.10;99.90
8537;DHT22;4306;50.210;10.628;2023-02-11T02:39:47;0.10;99.90
8537;DHT22;4306;50.210;10.628;2023-02-11T02:42:17;0.20;99.90
8537;DHT22;4306;50.210;10.628;2023-02-11T02:44:48;0.10;99.90
8537;DHT22;4306;50.210;10.628;2023-02-11T02:47:17;0.20;99.90
8537;DHT22;4306;50.210;10.628;2023-02-11T02:49:44;0.20;99.90
8537;DHT22;4306;50.210;10.628;2023-02-11T02:52:17;0.20;99.90
8537;DHT22;4306;50.210;10.628;2023-02-11T02:55:08;0.10;99.90
8537;DHT22;4306;50.210;10.628;2023-02-11T02:57:50;0.10;99.90
8537;DHT22;4306;50.210;10.628;2023-02-11T03:00:23;0.20;99.90
8537;DHT22;4306;50.210;10.628;2023-02-11T03:03:16;0.20;99.90
8537;DHT22;4306;50.210;10.628;2023-02-11T03:05:51;0.20;99.90
8537;DHT22;4306;50.210;10.628;2023-02-11T03:08:24;0.10;99.90
8537;DHT22;4306;50.210;10.628;2023-02-11T03:10:53;0.20;99.90
8537;DHT22;4306;50.210;10.628;2023-02-11T03:13:24;0.10;99.90
8537;DHT22;4306;50.210;10.628;2023-02-11T03:15:54;0.20;99.90
8537;DHT22;4306;50.210;10.628;2023-02-11T03:18:26;0.20;99.90
8537;DHT22;4306;50.210;10.628;2023-02-11T03:20:55;0.30;99.90
8537;DHT22;4306;50.210;10.628;2023-02-11T03:23:27;0.20;99.90
8537;DHT22;4306;50.210;10.628;2023-02-11T03:25:58;0.30;99.90
8537;DHT22;4306;50.210;10.628;2023-02-11T03:28:30;0.30;99.90
8537;DHT22;4306;50.210;10.628;2023-02-11T03:31:07;0.30;99.90
8537;DHT22;4306;50.210;10.628;2023-02-11T03:33:40;0.30;99.90
8537;DHT22;4306;50.210;10.628;2023-02-11T03:36:13;0.30;99.90
8537;DHT22;4306;50.210;10.628;2023-02-11T03:38:46;0.30;99.90
8537;DHT22;4306;50.210;10.628;2023-02-11T03:41:15;0.30;99.90
8537;DHT22;4306;50.210;10.628;2023-02-11T03:43:44;0.30;99.90
8537;DHT22;4306;50.210;10.628;2023-02-11T03:46:13;0.20;99.90
8537;DHT22;4306;50.210;10.628;2023-02-11T03:48:47;0.20;99.90
8537;DHT22;4306;50.210;10.628;2023-02-11T03:51:15;0.20;99.90
8537;DHT22;4306;50.210;10.628;2023-02-11T03:53:44;0.30;99.90
8537;DHT22;4306;50.210;10.628;2023-02-11T03:56:14;0.30;99.90
8537;DHT22;4306;50.210;10.628;2023-02-11T03:58:43;0.30;99.90
8537;DHT22;4306;50.210;10.628;2023-02-11T04:01:10;0.30;99.90
8537;DHT22;4306;50.210;10.628;2023-02-11T04:03:37;0.20;99.90
8537;DHT22;4306;50.210;10.628;2023-02-11T04:06:06;0.30;99.90
8537;DHT22;4306;50.210;10.628;2023-02-11T04:08:33;0.20;99.90
8537;DHT22;4306;50.210;10.628;2023-02-11T04:11:00;0.30;99.90
8537;DHT22;4306;50.210;10.628;2023-02-11T04:13:27;0.30;99.90
8537;DHT22;4306;50.210;10.628;2023-02-11T04:15:54;0.30;99.90
8537;DHT22;4306;50.210;10.628;2023-02-11T04:18:20;0.30;99.90
8537;DHT22;4306;50.210;10.628;2023-02-11T04:20:48;0.30;99.90
8537;DHT22;4306;50.210;10.628;2023-02-11T04:23:17;0.30;99.90
8537;DHT22;4306;50.210;10.628;2023-02-11T04:25:44;0.30;99.90
8537;DHT22;4306;50.210;10.628;2023-02-11T04:28:10;0.30;99.90
8537;DHT22;4306;50.210;10.628;2023-02-11T04:30:37;0.30;99.90
8537;DHT22;4306;50.210;10.628;2023-02-11T04:33:04;0.30;99.90
8537;DHT22;4306;50.210;10.628;2023-02-11T04:35:31;0.30;99.90
8537;DHT22;4306;50.210;10.628;2023-02-11T04:37:58;0.20;99.90
8537;DHT22;4306;50.210;10.628;2023-02-11T04:40:26;0.30;99.90
8537;DHT22;4306;50.210;10.628;2023-02-11T04:42:53;0.20;99.90
8537;DHT22;4306;50.210;10.628;2023-02-11T04:45:20;0.20;99.90
8537;DHT22;4306;50.210;10.628;2023-02-11T04:47:46;0.20;99.90
8537;DHT22;4306;50.210;10.628;2023-02-11T04:50:13;0.20;99.90
8537;DHT22;4306;50.210;10.628;2023-02-11T04:52:40;0.20;99.90
8537;DHT22;4306;50.210;10.628;2023-02-11T04:55:07;0.20;99.90
8537;DHT22;4306;50.210;10.628;2023-02-11T04:57:35;0.30;99.90
8537;DHT22;4306;50.210;10.628;2023-02-11T05:00:03;0.20;99.90
8537;DHT22;4306;50.210;10.628;2023-02-11T05:02:30;0.20;99.90
8537;DHT22;4306;50.210;10.628;2023-02-11T05:04:57;0.20;99.90
8537;DHT22;4306;50.210;10.628;2023-02-11T05:07:24;0.20;99.90
8537;DHT22;4306;50.210;10.628;2023-02-11T05:09:51;0.30;99.90
8537;DHT22;4306;50.210;10.628;2023-02-11T05:12:17;0.30;99.90
8537;DHT22;4306;50.210;10.628;2023-02-11T05:14:46;0.30;99.90
8537;DHT22;4306;50.210;10.628;2023-02-11T05:17:12;0.30;99.90
8537;DHT22;4306;50.210;10.628;2023-02-11T05:19:40;0.30;99.90
8537;DHT22;4306;50.210;10.628;2023-02-11T05:22:07;0.30;99.90
8537;DHT22;4306;50.210;10.628;2023-02-11T05:24:34;0.30;99.90
8537;DHT22;4306;50.210;10.628;2023-02-11T05:27:01;0.30;99.90
8537;DHT22;4306;50.210;10.628;2023-02-11T05:29:28;0.30;99.90
8537;DHT22;4306;50.210;10.628;2023-02-11T05:31:57;0.30;99.90
8537;DHT22;4306;50.210;10.628;2023-02-11T05:34:24;0.40;99.90
8537;DHT22;4306;50.210;10.628;2023-02-11T05:36:51;0.40;99.90
8537;DHT22;4306;50.210;10.628;2023-02-11T05:39:18;0.40;99.90
8537;DHT22;4306;50.210;10.628;2023-02-11T05:41:45;0.40;99.90
8537;DHT22;4306;50.210;10.628;2023-02-11T05:44:12;0.40;99.90
8537;DHT22;4306;50.210;10.628;2023-02-11T05:46:39;0.50;99.90
8537;DHT22;4306;50.210;10.628;2023-02-11T05:49:07;0.40;99.90
8537;DHT22;4306;50.210;10.628;2023-02-11T05:51:34;0.50;99.90
8537;DHT22;4306;50.210;10.628;2023-02-11T05:54:01;0.50;99.90
8537;DHT22;4306;50.210;10.628;2023-02-11T05:56:28;0.50;99.90
8537;DHT22;4306;50.210;10.628;2023-02-11T05:58:54;0.50;99.90
8537;DHT22;4306;50.210;10.628;2023-02-11T06:01:21;0.50;99.90
8537;DHT22;4306;50.210;10.628;2023-02-11T06:03:48;0.50;99.90
8537;DHT22;4306;50.210;10.628;2023-02-11T06:06:17;0.50;99.90
8537;DHT22;4306;50.210;10.628;2023-02-11T06:08:44;0.50;99.90
8537;DHT22;4306;50.210;10.628;2023-02-11T06:11:14;0.60;99.90
8537;DHT22;4306;50.210;10.628;2023-02-11T06:13:42;0.50;99.90
8537;DHT22;4306;50.210;10.628;2023-02-11T06:16:09;0.50;99.90
8537;DHT22;4306;50.210;10.628;2023-02-11T06:18:36;0.50;99.90
8537;DHT22;4306;50.210;10.628;2023-02-11T06:21:06;0.50;99.90
8537;DHT22;4306;50.210;10.628;2023-02-11T06:23:35;0.60;99.90
8537;DHT22;4306;50.210;10.628;2023-02-11T06:26:03;0.60;99.90
8537;DHT22;4306;50.210;10.628;2023-02-11T06:28:33;0.60;99.90
8537;DHT22;4306;50.210;10.628;2023-02-11T06:31:05;0.60;99.90
8537;DHT22;4306;50.210;10.628;2023-02-11T06:33:33;0.60;99.90
8537;DHT22;4306;50.210;10.628;2023-02-11T06:36:00;0.60;99.90
8537;DHT22;4306;50.210;10.628;2023-02-11T06:38:28;0.70;99.90
8537;DHT22;4306;50.210;10.628;2023-02-11T06:40:56;0.60;99.90
8537;DHT22;4306;50.210;10.628;2023-02-11T06:43:23;0.60;99.90
8537;DHT22;4306;50.210;10.628;2023-02-11T06:45:52;0.60;99.90
8537;DHT22;4306;50.210;10.628;2023-02-11T06:48:20;0.60;99.90
8537;DHT22;4306;50.210;10.628;2023-02-11T06:50:47;0.60;99.90
8537;DHT22;4306;50.210;10.628;2023-02-11T06:53:14;0.60;99.90
8537;DHT22;4306;50.210;10.628;2023-02-11T06:55:42;0.60;99.90
8537;DHT22;4306;50.210;10.628;2023-02-11T06:58:13;0.60;99.90
8537;DHT22;4306;50.210;10.628;2023-02-11T07:00:40;0.60;99.90
8537;DHT22;4306;50.210;10.628;2023-02-11T07:03:07;0.70;99.90
8537;DHT22;4306;50.210;10.628;2023-02-11T07:05:34;0.70;99.90
8537;DHT22;4306;50.210;10.628;2023-02-11T07:08:03;0.80;99.90
8537;DHT22;4306;50.210;10.628;2023-02-11T07:10:30;0.80;99.90
8537;DHT22;4306;50.210;10.628;2023-02-11T07:12:56;0.80;99.90
8537;DHT22;4306;50.210;10.628;2023-02-11T07:15:25;0.80;99.90
8537;DHT22;4306;50.210;10.628;2023-02-11T07:17:52;0.80;99.90
8537;DHT22;4306;50.210;10.628;2023-02-11T07:20:18;0.90;99.90
8537;DHT22;4306;50.210;10.628;2023-02-11T07:22:45;0.90;99.90
8537;DHT22;4306;50.210;10.628;2023-02-11T07:25:12;1.00;99.90
8537;DHT22;4306;50.210;10.628;2023-02-11T07:27:39;1.00;99.90
8537;DHT22;4306;50.210;10.628;2023-02-11T07:30:07;1.00;99.90
8537;DHT22;4306;50.210;10.628;2023-02-11T07:32:35;1.00;99.90
8537;DHT22;4306;50.210;10.628;2023-02-11T07:35:02;1.00;99.90
8537;DHT22;4306;50.210;10.628;2023-02-11T07:37:29;1.10;99.90
8537;DHT22;4306;50.210;10.628;2023-02-11T07:39:56;1.10;99.90
8537;DHT22;4306;50.210;10.628;2023-02-11T07:42:23;1.10;99.90
8537;DHT22;4306;50.210;10.628;2023-02-11T07:44:50;1.20;99.90
8537;DHT22;4306;50.210;10.628;2023-02-11T07:47:17;1.20;99.90
8537;DHT22;4306;50.210;10.628;2023-02-11T07:49:46;1.20;99.90
8537;DHT22;4306;50.210;10.628;2023-02-11T07:52:13;1.20;99.90
8537;DHT22;4306;50.210;10.628;2023-02-11T07:54:40;1.30;99.90
8537;DHT22;4306;50.210;10.628;2023-02-11T07:57:07;1.30;99.90
8537;DHT22;4306;50.210;10.628;2023-02-11T07:59:34;1.30;99.90
8537;DHT22;4306;50.210;10.628;2023-02-11T08:02:00;1.30;99.90
8537;DHT22;4306;50.210;10.628;2023-02-11T08:04:27;1.40;99.90
8537;DHT22;4306;50.210;10.628;2023-02-11T08:06:55;1.40;99.90
8537;DHT22;4306;50.210;10.628;2023-02-11T08:09:23;1.30;99.90
8537;DHT22;4306;50.210;10.628;2023-02-11T08:11:50;1.40;99.90
8537;DHT22;4306;50.210;10.628;2023-02-11T08:14:17;1.40;99.90
8537;DHT22;4306;50.210;10.628;2023-02-11T08:16:45;1.60;99.90
8537;DHT22;4306;50.210;10.628;2023-02-11T08:19:13;1.60;99.90
8537;DHT22;4306;50.210;10.628;2023-02-11T08:21:41;1.50;99.90
8537;DHT22;4306;50.210;10.628;2023-02-11T08:24:09;1.60;99.90
8537;DHT22;4306;50.210;10.628;2023-02-11T08:26:37;1.60;99.90
8537;DHT22;4306;50.210;10.628;2023-02-11T08:29:07;1.70;99.90
8537;DHT22;4306;50.210;10.628;2023-02-11T08:31:35;1.70;99.90
8537;DHT22;4306;50.210;10.628;2023-02-11T08:34:02;1.80;99.90
8537;DHT22;4306;50.210;10.628;2023-02-11T08:36:31;1.90;99.90
8537;DHT22;4306;50.210;10.628;2023-02-11T08:39:00;1.90;99.90
8537;DHT22;4306;50.210;10.628;2023-02-11T08:41:29;2.00;99.90
8537;DHT22;4306;50.210;10.628;2023-02-11T08:43:56;2.00;99.90
8537;DHT22;4306;50.210;10.628;2023-02-11T08:46:23;2.10;99.90
8537;DHT22;4306;50.210;10.628;2023-02-11T08:48:50;2.10;99.90
8537;DHT22;4306;50.210;10.628;2023-02-11T08:51:20;2.20;99.90
8537;DHT22;4306;50.210;10.628;2023-02-11T08:53:47;2.10;99.90
8537;DHT22;4306;50.210;10.628;2023-02-11T08:56:16;2.10;99.90
8537;DHT22;4306;50.210;10.628;2023-02-11T08:58:44;2.10;99.90
8537;DHT22;4306;50.210;10.628;2023-02-11T09:01:13;2.10;99.90
8537;DHT22;4306;50.210;10.628;2023-02-11T09:03:40;2.20;99.90
8537;DHT22;4306;50.210;10.628;2023-02-11T09:06:08;2.10;99.90
8537;DHT22;4306;50.210;10.628;2023-02-11T09:08:36;2.20;99.90
8537;DHT22;4306;50.210;10.628;2023-02-11T09:11:03;2.20;99.90
8537;DHT22;4306;50.210;10.628;2023-02-11T09:13:31;2.10;99.90
8537;DHT22;4306;50.210;10.628;2023-02-11T09:16:00;2.20;99.90
8537;DHT22;4306;50.210;10.628;2023-02-11T09:18:27;2.30;99.90
8537;DHT22;4306;50.210;10.628;2023-02-11T09:21:01;2.40;99.90
8537;DHT22;4306;50.210;10.628;2023-02-11T09:23:28;2.40;99.90
8537;DHT22;4306;50.210;10.628;2023-02-11T09:25:55;2.40;99.90
8537;DHT22;4306;50.210;10.628;2023-02-11T09:28:22;2.60;99.90
8537;DHT22;4306;50.210;10.628;2023-02-11T09:30:49;2.40;99.90
8537;DHT22;4306;50.210;10.628;2023-02-11T09:33:17;2.30;99.90
8537;DHT22;4306;50.210;10.628;2023-02-11T09:35:43;2.50;99.90
8537;DHT22;4306;50.210;10.628;2023-02-11T09:38:10;2.60;99.90
8537;DHT22;4306;50.210;10.628;2023-02-11T09:40:41;2.60;99.90
8537;DHT22;4306;50.210;10.628;2023-02-11T09:43:12;2.60;99.90
8537;DHT22;4306;50.210;10.628;2023-02-11T09:45:43;2.60;99.90
8537;DHT22;4306;50.210;10.628;2023-02-11T09:48:14;2.60;99.90
8537;DHT22;4306;50.210;10.628;2023-02-11T09:50:44;2.60;99.90
8537;DHT22;4306;50.210;10.628;2023-02-11T09:53:17;2.60;99.90
8537;DHT22;4306;50.210;10.628;2023-02-11T09:55:47;2.60;99.90
8537;DHT22;4306;50.210;10.628;2023-02-11T09:58:21;2.60;99.90
8537;DHT22;4306;50.210;10.628;2023-02-11T10:00:56;2.70;99.90
8537;DHT22;4306;50.210;10.628;2023-02-11T10:06:35;2.90;99.90
8537;DHT22;4306;50.210;10.628;2023-02-11T10:09:15;2.90;99.90
8537;DHT22;4306;50.210;10.628;2023-02-11T10:11:50;3.00;99.90
8537;DHT22;4306;50.210;10.628;2023-02-11T10:14:28;3.00;99.90
8537;DHT22;4306;50.210;10.628;2023-02-11T10:17:10;3.10;99.90
8537;DHT22;4306;50.210;10.628;2023-02-11T10:19:53;3.10;99.90
8537;DHT22;4306;50.210;10.628;2023-02-11T10:22:27;3.10;99.90
8537;DHT22;4306;50.210;10.628;2023-02-11T10:24:57;3.10;99.90
8537;DHT22;4306;50.210;10.628;2023-02-11T10:27:30;3.10;99.90
8537;DHT22;4306;50.210;10.628;2023-02-11T10:30:00;3.10;99.90
8537;DHT22;4306;50.210;10.628;2023-02-11T10:32:34;3.20;99.90
8537;DHT22;4306;50.210;10.628;2023-02-11T10:35:13;3.20;99.90
8537;DHT22;4306;50.210;10.628;2023-02-11T10:37:43;3.20;99.90
8537;DHT22;4306;50.210;10.628;2023-02-11T10:40:13;3.20;99.90
8537;DHT22;4306;50.210;10.628;2023-02-11T10:42:43;3.20;99.90
8537;DHT22;4306;50.210;10.628;2023-02-11T10:45:17;3.30;99.90
8537;DHT22;4306;50.210;10.628;2023-02-11T10:47:44;3.30;99.90
8537;DHT22;4306;50.210;10.628;2023-02-11T10:50:21;3.30;99.90
8537;DHT22;4306;50.210;10.628;2023-02-11T10:52:49;3.40;99.90
8537;DHT22;4306;50.210;10.628;2023-02-11T10:55:18;3.40;99.90
8537;DHT22;4306;50.210;10.628;2023-02-11T10:57:53;3.40;99.90
8537;DHT22;4306;50.210;10.628;2023-02-11T11:00:33;3.50;99.90
8537;DHT22;4306;50.210;10.628;2023-02-11T11:03:04;3.50;99.90
8537;DHT22;4306;50.210;10.628;2023-02-11T11:05:34;3.50;99.90
8537;DHT22;4306;50.210;10.628;2023-02-11T11:08:05;3.50;99.90
8537;DHT22;4306;50.210;10.628;2023-02-11T11:10:38;3.60;99.90
8537;DHT22;4306;50.210;10.628;2023-02-11T11:13:24;3.60;99.90
8537;DHT22;4306;50.210;10.628;2023-02-11T11:16:17;3.70;99.90
8537;DHT22;4306;50.210;10.628;2023-02-11T11:18:45;3.70;99.90
8537;DHT22;4306;50.210;10.628;2023-02-11T11:21:15;3.70;99.90
8537;DHT22;4306;50.210;10.628;2023-02-11T11:23:49;3.70;99.90
8537;DHT22;4306;50.210;10.628;2023-02-11T11:26:17;3.70;99.90
8537;DHT22;4306;50.210;10.628;2023-02-11T11:28:53;3.80;99.90
8537;DHT22;4306;50.210;10.628;2023-02-11T11:31:22;3.80;99.90
8537;DHT22;4306;50.210;10.628;2023-02-11T11:33:52;3.90;99.90
8537;DHT22;4306;50.210;10.628;2023-02-11T11:36:22;3.90;99.90
8537;DHT22;4306;50.210;10.628;2023-02-11T11:38:54;3.90;99.90
8537;DHT22;4306;50.210;10.628;2023-02-11T11:41:25;3.90;99.90
8537;DHT22;4306;50.210;10.628;2023-02-11T11:44:01;4.00;99.90
8537;DHT22;4306;50.210;10.628;2023-02-11T11:46:31;4.00;99.90
8537;DHT22;4306;50.210;10.628;2023-02-11T11:49:20;4.00;99.90
8537;DHT22;4306;50.210;10.628;2023-02-11T11:51:57;4.00;99.90
8537;DHT22;4306;50.210;10.628;2023-02-11T11:54:30;4.00;99.90
8537;DHT22;4306;50.210;10.628;2023-02-11T11:57:02;3.90;99.90
8537;DHT22;4306;50.210;10.628;2023-02-11T11:59:31;4.00;99.90
8537;DHT22;4306;50.210;10.628;2023-02-11T12:02:17;4.00;99.90
8537;DHT22;4306;50.210;10.628;2023-02-11T12:05:00;4.00;99.90
8537;DHT22;4306;50.210;10.628;2023-02-11T12:07:44;4.00;99.90
8537;DHT22;4306;50.210;10.628;2023-02-11T12:13:18;4.30;99.90
8537;DHT22;4306;50.210;10.628;2023-02-11T12:15:54;4.00;99.90
8537;DHT22;4306;50.210;10.628;2023-02-11T12:18:35;4.10;99.90
8537;DHT22;4306;50.210;10.628;2023-02-11T12:21:18;4.00;99.90
8537;DHT22;4306;50.210;10.628;2023-02-11T12:23:57;4.00;99.90
8537;DHT22;4306;50.210;10.628;2023-02-11T12:26:32;4.00;99.90
8537;DHT22;4306;50.210;10.628;2023-02-11T12:29:05;4.00;99.90
8537;DHT22;4306;50.210;10.628;2023-02-11T12:31:51;4.10;99.90
8537;DHT22;4306;50.210;10.628;2023-02-11T12:34:45;4.10;99.90
8537;DHT22;4306;50.210;10.628;2023-02-11T12:37:29;4.10;99.90
8537;DHT22;4306;50.210;10.628;2023-02-11T12:40:05;4.20;99.90
8537;DHT22;4306;50.210;10.628;2023-02-11T12:42:59;4.20;99.90
8537;DHT22;4306;50.210;10.628;2023-02-11T12:46:00;4.20;99.90
8537;DHT22;4306;50.210;10.628;2023-02-11T12:48:49;4.20;99.90
8537;DHT22;4306;50.210;10.628;2023-02-11T12:51:26;4.20;99.90
8537;DHT22;4306;50.210;10.628;2023-02-11T12:54:13;4.10;99.90
8537;DHT22;4306;50.210;10.628;2023-02-11T12:56:47;4.10;99.90
8537;DHT22;4306;50.210;10.628;2023-02-11T12:59:32;4.20;99.90
8537;DHT22;4306;50.210;10.628;2023-02-11T13:02:05;4.30;99.90
8537;DHT22;4306;50.210;10.628;2023-02-11T13:04:42;4.30;99.90
8537;DHT22;4306;50.210;10.628;2023-02-11T13:07:16;4.40;99.90
8537;DHT22;4306;50.210;10.628;2023-02-11T13:09:50;4.40;99.90
8537;DHT22;4306;50.210;10.628;2023-02-11T13:12:20;4.50;99.90
8537;DHT22;4306;50.210;10.628;2023-02-11T13:15:12;4.50;99.90
8537;DHT22;4306;50.210;10.628;2023-02-11T13:17:45;4.60;99.90
8537;DHT22;4306;50.210;10.628;2023-02-11T13:20:20;4.60;99.90
8537;DHT22;4306;50.210;10.628;2023-02-11T13:22:55;4.70;99.90
8537;DHT22;4306;50.210;10.628;2023-02-11T13:25:31;4.70;99.90
8537;DHT22;4306;50.210;10.628;2023-02-11T13:28:08;4.70;99.90
8537;DHT22;4306;50.210;10.628;2023-02-11T13:30:43;4.70;99.90
8537;DHT22;4306;50.210;10.628;2023-02-11T13:33:29;4.70;99.90
8537;DHT22;4306;50.210;10.628;2023-02-11T13:36:20;4.80;99.90
8537;DHT22;4306;50.210;10.628;2023-02-11T13:39:00;4.80;99.90
8537;DHT22;4306;50.210;10.628;2023-02-11T13:41:34;4.80;99.90
8537;DHT22;4306;50.210;10.628;2023-02-11T13:44:16;4.80;99.90
8537;DHT22;4306;50.210;10.628;2023-02-11T13:47:03;4.90;99.90
8537;DHT22;4306;50.210;10.628;2023-02-11T13:49:34;4.90;99.90
8537;DHT22;4306;50.210;10.628;2023-02-11T13:52:15;4.90;99.90
8537;DHT22;4306;50.210;10.628;2023-02-11T13:54:47;4.90;99.90
8537;DHT22;4306;50.210;10.628;2023-02-11T13:57:32;4.90;99.90
8537;DHT22;4306;50.210;10.628;2023-02-11T14:00:00;5.00;99.90
8537;DHT22;4306;50.210;10.628;2023-02-11T14:02:31;5.00;99.90
8537;DHT22;4306;50.210;10.628;2023-02-11T14:05:31;5.00;99.90
8537;DHT22;4306;50.210;10.628;2023-02-11T14:08:23;5.00;99.90
8537;DHT22;4306;50.210;10.628;2023-02-11T14:11:42;5.10;99.90
8537;DHT22;4306;50.210;10.628;2023-02-11T14:14:18;5.20;99.90
8537;DHT22;4306;50.210;10.628;2023-02-11T14:17:16;5.20;99.90
8537;DHT22;4306;50.210;10.628;2023-02-11T14:19:46;5.10;99.90
8537;DHT22;4306;50.210;10.628;2023-02-11T14:22:16;5.10;99.90
8537;DHT22;4306;50.210;10.628;2023-02-11T14:24:50;5.10;99.90
8537;DHT22;4306;50.210;10.628;2023-02-11T14:27:34;5.20;99.90
8537;DHT22;4306;50.210;10.628;2023-02-11T14:30:29;5.20;99.90
8537;DHT22;4306;50.210;10.628;2023-02-11T14:33:17;5.20;99.90
8537;DHT22;4306;50.210;10.628;2023-02-11T14:35:56;5.20;99.90
8537;DHT22;4306;50.210;10.628;2023-02-11T14:38:32;5.20;99.90
8537;DHT22;4306;50.210;10.628;2023-02-11T14:41:06;5.20;99.90
8537;DHT22;4306;50.210;10.628;2023-02-11T14:43:37;5.20;99.90
8537;DHT22;4306;50.210;10.628;2023-02-11T14:46:06;5.20;99.90
8537;DHT22;4306;50.210;10.628;2023-02-11T14:48:36;5.20;99.90
8537;DHT22;4306;50.210;10.628;2023-02-11T14:51:06;5.20;99.90
8537;DHT22;4306;50.210;10.628;2023-02-11T14:53:36;5.20;99.90
8537;DHT22;4306;50.210;10.628;2023-02-11T14:56:17;5.10;99.90
8537;DHT22;4306;50.210;10.628;2023-02-11T14:58:45;5.20;99.90
8537;DHT22;4306;50.210;10.628;2023-02-11T15:01:24;5.10;99.90
8537;DHT22;4306;50.210;10.628;2023-02-11T15:03:52;5.10;99.90
8537;DHT22;4306;50.210;10.628;2023-02-11T15:06:24;5.10;99.90
8537;DHT22;4306;50.210;10.628;2023-02-11T15:08:54;5.10;99.90
8537;DHT22;4306;50.210;10.628;2023-02-11T15:11:24;5.10;99.90
8537;DHT22;4306;50.210;10.628;2023-02-11T15:13:51;5.10;99.90
8537;DHT22;4306;50.210;10.628;2023-02-11T15:16:21;5.10;99.90
8537;DHT22;4306;50.210;10.628;2023-02-11T15:18:51;5.00;99.90
8537;DHT22;4306;50.210;10.628;2023-02-11T15:21:22;5.00;99.90
8537;DHT22;4306;50.210;10.628;2023-02-11T15:23:58;5.00;99.90
8537;DHT22;4306;50.210;10.628;2023-02-11T15:26:26;5.00;99.90
8537;DHT22;4306;50.210;10.628;2023-02-11T15:28:54;5.00;99.90
8537;DHT22;4306;50.210;10.628;2023-02-11T15:31:23;5.00;99.90
8537;DHT22;4306;50.210;10.628;2023-02-11T15:33:50;5.00;99.90
8537;DHT22;4306;50.210;10.628;2023-02-11T15:36:20;5.00;99.90
8537;DHT22;4306;50.210;10.628;2023-02-11T15:39:17;4.90;99.90
8537;DHT22;4306;50.210;10.628;2023-02-11T15:41:44;5.00;99.90
8537;DHT22;4306;50.210;10.628;2023-02-11T15:44:26;5.00;99.90
8537;DHT22;4306;50.210;10.628;2023-02-11T15:46:53;5.00;99.90
8537;DHT22;4306;50.210;10.628;2023-02-11T15:49:21;5.00;99.90
8537;DHT22;4306;50.210;10.628;2023-02-11T15:51:49;5.00;99.90
8537;DHT22;4306;50.210;10.628;2023-02-11T15:54:19;5.00;99.90
8537;DHT22;4306;50.210;10.628;2023-02-11T15:56:48;5.00;99.90
8537;DHT22;4306;50.210;10.628;2023-02-11T15:59:18;5.00;99.90
8537;DHT22;4306;50.210;10.628;2023-02-11T16:01:46;4.90;99.90
8537;DHT22;4306;50.210;10.628;2023-02-11T16:04:16;4.90;99.90
8537;DHT22;4306;50.210;10.628;2023-02-11T16:06:43;4.80;99.90
8537;DHT22;4306;50.210;10.628;2023-02-11T16:09:29;4.90;99.90
8537;DHT22;4306;50.210;10.628;2023-02-11T16:11:59;4.90;99.90
8537;DHT22;4306;50.210;10.628;2023-02-11T16:14:30;4.90;99.90
8537;DHT22;4306;50.210;10.628;2023-02-11T16:17:01;4.90;99.90
8537;DHT22;4306;50.210;10.628;2023-02-11T16:19:29;4.80;99.90
8537;DHT22;4306;50.210;10.628;2023-02-11T16:21:59;4.80;99.90
8537;DHT22;4306;50.210;10.628;2023-02-11T16:24:29;4.80;99.90
8537;DHT22;4306;50.210;10.628;2023-02-11T16:26:59;4.80;99.90
8537;DHT22;4306;50.210;10.628;2023-02-11T16:29:28;4.80;99.90
8537;DHT22;4306;50.210;10.628;2023-02-11T16:32:05;4.80;99.90
8537;DHT22;4306;50.210;10.628;2023-02-11T16:34:33;4.70;99.90
8537;DHT22;4306;50.210;10.628;2023-02-11T16:37:03;4.70;99.90
8537;DHT22;4306;50.210;10.628;2023-02-11T16:39:32;4.80;99.90
8537;DHT22;4306;50.210;10.628;2023-02-11T16:42:00;4.70;99.90